sensor_id;sensor_type;location;lat;lon;timestamp;P1;durP1;ratioP1;P2;durP2;ratioP2
10201;SDS011;5143;42.584;23.164;2024-03-08T00:00:55;13.63;;;10.07;;
10201;SDS011;5143;42.584;23.164;2024-03-08T00:03:22;12.07;;;9.60;;
10201;SDS011;5143;42.584;23.164;2024-03-08T00:05:50;11.57;;;9.47;;
10201;SDS011;5143;42.584;23.164;2024-03-08T00:08:17;12.47;;;9.53;;
10201;SDS011;5143;42.584;23.164;2024-03-08T00:10:43;16.07;;;12.70;;
10201;SDS011;5143;42.584;23.164;2024-03-08T00:13:10;15.13;;;11.80;;
10201;SDS011;5143;42.584;23.164;2024-03-08T00:15:36;13.10;;;10.87;;
10201;SDS011;5143;42.584;23.164;2024-03-08T00:18:03;15.03;;;11.00;;
10201;SDS011;5143;42.584;23.164;2024-03-08T00:20:30;16.40;;;11.30;;
10201;SDS011;5143;42.584;23.164;2024-03-08T00:22:57;16.20;;;11.77;;
10201;SDS011;5143;42.584;23.164;2024-03-08T00:25:24;15.67;;;11.73;;
10201;SDS011;5143;42.584;23.164;2024-03-08T00:27:51;13.90;;;10.43;;
10201;SDS011;5143;42.584;23.164;2024-03-08T00:30:21;13.10;;;10.33;;
10201;SDS011;5143;42.584;23.164;2024-03-08T00:32:48;12.97;;;10.37;;
10201;SDS011;5143;42.584;23.164;2024-03-08T00:35:14;14.83;;;10.80;;
10201;SDS011;5143;42.584;23.164;2024-03-08T00:37:41;13.23;;;10.87;;
10201;SDS011;5143;42.584;23.164;2024-03-08T00:40:09;13.37;;;10.47;;
10201;SDS011;5143;42.584;23.164;2024-03-08T00:42:36;12.53;;;10.00;;
10201;SDS011;5143;42.584;23.164;2024-03-08T00:45:03;13.47;;;10.47;;
10201;SDS011;5143;42.584;23.164;2024-03-08T00:47:30;16.17;;;10.90;;
10201;SDS011;5143;42.584;23.164;2024-03-08T00:49:57;14.33;;;10.93;;
10201;SDS011;5143;42.584;23.164;2024-03-08T00:52:23;12.90;;;9.13;;
10201;SDS011;5143;42.584;23.164;2024-03-08T00:54:50;11.50;;;9.20;;
10201;SDS011;5143;42.584;23.164;2024-03-08T00:57:18;12.13;;;9.17;;
10201;SDS011;5143;42.584;23.164;2024-03-08T00:59:44;10.00;;;8.33;;
10201;SDS011;5143;42.584;23.164;2024-03-08T01:02:11;9.97;;;8.00;;
10201;SDS011;5143;42.584;23.164;2024-03-08T01:04:37;9.63;;;7.63;;
10201;SDS011;5143;42.584;23.164;2024-03-08T01:07:03;9.97;;;8.23;;
10201;SDS011;5143;42.584;23.164;2024-03-08T01:09:30;10.03;;;8.03;;
10201;SDS011;5143;42.584;23.164;2024-03-08T01:11:57;9.17;;;8.27;;
10201;SDS011;5143;42.584;23.164;2024-03-08T01:14:25;9.23;;;7.77;;
10201;SDS011;5143;42.584;23.164;2024-03-08T01:16:51;8.70;;;7.77;;
10201;SDS011;5143;42.584;23.164;2024-03-08T01:19:18;9.90;;;6.57;;
10201;SDS011;5143;42.584;23.164;2024-03-08T01:21:44;8.00;;;6.97;;
10201;SDS011;5143;42.584;23.164;2024-03-08T01:24:11;8.03;;;7.03;;
10201;SDS011;5143;42.584;23.164;2024-03-08T01:26:38;8.03;;;7.00;;
10201;SDS011;5143;42.584;23.164;2024-03-08T01:29:04;8.33;;;6.93;;
10201;SDS011;5143;42.584;23.164;2024-03-08T01:31:32;9.87;;;8.07;;
10201;SDS011;5143;42.584;23.164;2024-03-08T01:33:59;9.07;;;7.57;;
10201;SDS011;5143;42.584;23.164;2024-03-08T01:36:25;8.00;;;7.13;;
10201;SDS011;5143;42.584;23.164;2024-03-08T01:38:52;6.83;;;6.13;;
10201;SDS011;5143;42.584;23.164;2024-03-08T01:41:18;8.27;;;6.97;;
10201;SDS011;5143;42.584;23.164;2024-03-08T01:43:45;6.80;;;6.10;;
10201;SDS011;5143;42.584;23.164;2024-03-08T01:46:12;7.43;;;6.07;;
10201;SDS011;5143;42.584;23.164;2024-03-08T01:48:41;6.20;;;5.60;;
10201;SDS011;5143;42.584;23.164;2024-03-08T01:51:08;5.90;;;5.30;;
10201;SDS011;5143;42.584;23.164;2024-03-08T01:53:34;6.10;;;4.63;;
10201;SDS011;5143;42.584;23.164;2024-03-08T01:56:02;5.40;;;4.90;;
10201;SDS011;5143;42.584;23.164;2024-03-08T01:58:29;5.13;;;4.20;;
10201;SDS011;5143;42.584;23.164;2024-03-08T02:00:56;4.80;;;4.20;;
10201;SDS011;5143;42.584;23.164;2024-03-08T02:03:23;4.80;;;4.30;;
10201;SDS011;5143;42.584;23.164;2024-03-08T02:05:51;4.77;;;4.20;;
10201;SDS011;5143;42.584;23.164;2024-03-08T02:08:18;5.20;;;4.30;;
10201;SDS011;5143;42.584;23.164;2024-03-08T02:10:47;4.70;;;4.03;;
10201;SDS011;5143;42.584;23.164;2024-03-08T02:13:14;5.97;;;4.20;;
10201;SDS011;5143;42.584;23.164;2024-03-08T02:15:50;4.90;;;4.40;;
10201;SDS011;5143;42.584;23.164;2024-03-08T02:18:16;5.10;;;4.37;;
10201;SDS011;5143;42.584;23.164;2024-03-08T02:20:44;5.03;;;3.87;;
10201;SDS011;5143;42.584;23.164;2024-03-08T02:23:12;4.47;;;4.07;;
10201;SDS011;5143;42.584;23.164;2024-03-08T02:25:40;5.00;;;3.67;;
10201;SDS011;5143;42.584;23.164;2024-03-08T02:28:06;4.43;;;4.00;;
10201;SDS011;5143;42.584;23.164;2024-03-08T02:30:34;4.50;;;4.10;;
10201;SDS011;5143;42.584;23.164;2024-03-08T02:33:01;4.40;;;4.00;;
10201;SDS011;5143;42.584;23.164;2024-03-08T02:35:27;4.63;;;4.10;;
10201;SDS011;5143;42.584;23.164;2024-03-08T02:37:55;6.73;;;4.10;;
10201;SDS011;5143;42.584;23.164;2024-03-08T02:40:21;5.33;;;3.80;;
10201;SDS011;5143;42.584;23.164;2024-03-08T02:42:48;4.80;;;4.33;;
10201;SDS011;5143;42.584;23.164;2024-03-08T02:45:14;4.97;;;4.20;;
10201;SDS011;5143;42.584;23.164;2024-03-08T02:47:41;5.67;;;3.93;;
10201;SDS011;5143;42.584;23.164;2024-03-08T02:50:07;4.80;;;4.30;;
10201;SDS011;5143;42.584;23.164;2024-03-08T02:52:34;5.40;;;3.97;;
10201;SDS011;5143;42.584;23.164;2024-03-08T02:55:02;5.80;;;4.13;;
10201;SDS011;5143;42.584;23.164;2024-03-08T02:57:31;6.13;;;4.40;;
10201;SDS011;5143;42.584;23.164;2024-03-08T02:59:57;4.73;;;4.10;;
10201;SDS011;5143;42.584;23.164;2024-03-08T03:02:24;4.90;;;4.50;;
10201;SDS011;5143;42.584;23.164;2024-03-08T03:04:51;4.80;;;4.27;;
10201;SDS011;5143;42.584;23.164;2024-03-08T03:07:18;4.93;;;4.37;;
10201;SDS011;5143;42.584;23.164;2024-03-08T03:09:45;5.00;;;4.30;;
10201;SDS011;5143;42.584;23.164;2024-03-08T03:12:13;4.93;;;4.43;;
10201;SDS011;5143;42.584;23.164;2024-03-08T03:14:39;5.80;;;4.70;;
10201;SDS011;5143;42.584;23.164;2024-03-08T03:17:06;5.00;;;4.50;;
10201;SDS011;5143;42.584;23.164;2024-03-08T03:19:32;6.03;;;4.53;;
10201;SDS011;5143;42.584;23.164;2024-03-08T03:22:01;5.33;;;4.77;;
10201;SDS011;5143;42.584;23.164;2024-03-08T03:24:28;5.13;;;4.53;;
10201;SDS011;5143;42.584;23.164;2024-03-08T03:26:55;6.13;;;4.73;;
10201;SDS011;5143;42.584;23.164;2024-03-08T03:29:23;5.93;;;5.00;;
10201;SDS011;5143;42.584;23.164;2024-03-08T03:31:50;5.43;;;4.93;;
10201;SDS011;5143;42.584;23.164;2024-03-08T03:34:17;6.63;;;5.43;;
10201;SDS011;5143;42.584;23.164;2024-03-08T03:36:44;5.90;;;5.20;;
10201;SDS011;5143;42.584;23.164;2024-03-08T03:39:12;6.93;;;5.70;;
10201;SDS011;5143;42.584;23.164;2024-03-08T03:41:41;9.37;;;5.90;;
10201;SDS011;5143;42.584;23.164;2024-03-08T03:44:09;6.57;;;5.67;;
10201;SDS011;5143;42.584;23.164;2024-03-08T03:46:37;7.50;;;5.97;;
10201;SDS011;5143;42.584;23.164;2024-03-08T03:49:04;7.83;;;6.13;;
10201;SDS011;5143;42.584;23.164;2024-03-08T03:51:30;6.53;;;5.67;;
10201;SDS011;5143;42.584;23.164;2024-03-08T03:53:56;5.70;;;5.07;;
10201;SDS011;5143;42.584;23.164;2024-03-08T03:56:24;7.20;;;5.70;;
10201;SDS011;5143;42.584;23.164;2024-03-08T03:58:51;6.13;;;5.53;;
10201;SDS011;5143;42.584;23.164;2024-03-08T04:01:17;7.43;;;5.60;;
10201;SDS011;5143;42.584;23.164;2024-03-08T04:03:45;6.17;;;5.50;;
10201;SDS011;5143;42.584;23.164;2024-03-08T04:06:12;6.57;;;5.80;;
10201;SDS011;5143;42.584;23.164;2024-03-08T04:08:39;7.40;;;6.30;;
10201;SDS011;5143;42.584;23.164;2024-03-08T04:11:06;7.63;;;6.83;;
10201;SDS011;5143;42.584;23.164;2024-03-08T04:13:33;7.27;;;6.30;;
10201;SDS011;5143;42.584;23.164;2024-03-08T04:16:01;7.63;;;6.07;;
10201;SDS011;5143;42.584;23.164;2024-03-08T04:18:27;5.90;;;5.30;;
10201;SDS011;5143;42.584;23.164;2024-03-08T04:20:55;6.13;;;5.53;;
10201;SDS011;5143;42.584;23.164;2024-03-08T04:23:22;6.00;;;5.40;;
10201;SDS011;5143;42.584;23.164;2024-03-08T04:25:48;7.53;;;5.30;;
10201;SDS011;5143;42.584;23.164;2024-03-08T04:28:14;4.37;;;3.93;;
10201;SDS011;5143;42.584;23.164;2024-03-08T04:30:42;5.50;;;4.80;;
10201;SDS011;5143;42.584;23.164;2024-03-08T04:33:08;5.90;;;4.63;;
10201;SDS011;5143;42.584;23.164;2024-03-08T04:35:35;5.20;;;4.70;;
10201;SDS011;5143;42.584;23.164;2024-03-08T04:38:03;5.13;;;4.63;;
10201;SDS011;5143;42.584;23.164;2024-03-08T04:40:30;5.00;;;4.50;;
10201;SDS011;5143;42.584;23.164;2024-03-08T04:42:57;4.57;;;3.93;;
10201;SDS011;5143;42.584;23.164;2024-03-08T04:45:24;5.17;;;3.80;;
10201;SDS011;5143;42.584;23.164;2024-03-08T04:47:51;4.13;;;3.10;;
10201;SDS011;5143;42.584;23.164;2024-03-08T04:50:18;2.93;;;2.47;;
10201;SDS011;5143;42.584;23.164;2024-03-08T04:52:45;2.63;;;2.20;;
10201;SDS011;5143;42.584;23.164;2024-03-08T04:55:12;2.37;;;1.83;;
10201;SDS011;5143;42.584;23.164;2024-03-08T04:57:39;2.20;;;1.80;;
10201;SDS011;5143;42.584;23.164;2024-03-08T05:00:07;1.53;;;1.33;;
10201;SDS011;5143;42.584;23.164;2024-03-08T05:02:36;2.17;;;1.60;;
10201;SDS011;5143;42.584;23.164;2024-03-08T05:05:04;3.63;;;2.70;;
10201;SDS011;5143;42.584;23.164;2024-03-08T05:07:31;5.43;;;3.77;;
10201;SDS011;5143;42.584;23.164;2024-03-08T05:09:58;4.73;;;3.03;;
10201;SDS011;5143;42.584;23.164;2024-03-08T05:12:25;5.03;;;3.30;;
10201;SDS011;5143;42.584;23.164;2024-03-08T05:14:52;3.03;;;2.07;;
10201;SDS011;5143;42.584;23.164;2024-03-08T05:17:19;2.27;;;1.90;;
10201;SDS011;5143;42.584;23.164;2024-03-08T05:19:45;2.67;;;1.80;;
10201;SDS011;5143;42.584;23.164;2024-03-08T05:22:11;3.37;;;1.80;;
10201;SDS011;5143;42.584;23.164;2024-03-08T05:24:38;2.33;;;1.60;;
10201;SDS011;5143;42.584;23.164;2024-03-08T05:27:05;2.40;;;1.83;;
10201;SDS011;5143;42.584;23.164;2024-03-08T05:29:32;3.20;;;2.37;;
10201;SDS011;5143;42.584;23.164;2024-03-08T05:31:59;4.53;;;2.07;;
10201;SDS011;5143;42.584;23.164;2024-03-08T05:34:26;2.23;;;1.80;;
10201;SDS011;5143;42.584;23.164;2024-03-08T05:36:53;2.57;;;1.90;;
10201;SDS011;5143;42.584;23.164;2024-03-08T05:39:20;2.53;;;1.77;;
10201;SDS011;5143;42.584;23.164;2024-03-08T05:41:46;3.73;;;1.63;;
10201;SDS011;5143;42.584;23.164;2024-03-08T05:44:13;1.70;;;1.40;;
10201;SDS011;5143;42.584;23.164;2024-03-08T05:46:43;1.80;;;1.60;;
10201;SDS011;5143;42.584;23.164;2024-03-08T05:49:09;2.70;;;2.20;;
10201;SDS011;5143;42.584;23.164;2024-03-08T05:51:37;3.17;;;2.40;;
10201;SDS011;5143;42.584;23.164;2024-03-08T05:54:04;5.17;;;3.37;;
10201;SDS011;5143;42.584;23.164;2024-03-08T05:56:31;3.27;;;2.30;;
10201;SDS011;5143;42.584;23.164;2024-03-08T05:58:58;3.20;;;2.70;;
10201;SDS011;5143;42.584;23.164;2024-03-08T06:01:24;4.00;;;2.50;;
10201;SDS011;5143;42.584;23.164;2024-03-08T06:03:52;4.43;;;2.40;;
10201;SDS011;5143;42.584;23.164;2024-03-08T06:06:20;3.00;;;2.30;;
10201;SDS011;5143;42.584;23.164;2024-03-08T06:08:47;3.13;;;2.33;;
10201;SDS011;5143;42.584;23.164;2024-03-08T06:11:14;2.70;;;2.43;;
10201;SDS011;5143;42.584;23.164;2024-03-08T06:13:42;2.80;;;2.53;;
10201;SDS011;5143;42.584;23.164;2024-03-08T06:16:09;3.00;;;2.70;;
10201;SDS011;5143;42.584;23.164;2024-03-08T06:18:35;3.07;;;2.70;;
10201;SDS011;5143;42.584;23.164;2024-03-08T06:21:04;3.30;;;2.83;;
10201;SDS011;5143;42.584;23.164;2024-03-08T06:23:31;3.87;;;3.40;;
10201;SDS011;5143;42.584;23.164;2024-03-08T06:25:57;4.23;;;3.77;;
10201;SDS011;5143;42.584;23.164;2024-03-08T06:28:24;3.43;;;3.10;;
10201;SDS011;5143;42.584;23.164;2024-03-08T06:30:50;3.83;;;3.53;;
10201;SDS011;5143;42.584;23.164;2024-03-08T06:33:18;3.83;;;3.53;;
10201;SDS011;5143;42.584;23.164;2024-03-08T06:35:44;4.30;;;3.60;;
10201;SDS011;5143;42.584;23.164;2024-03-08T06:38:12;5.07;;;4.30;;
10201;SDS011;5143;42.584;23.164;2024-03-08T06:40:40;4.70;;;4.20;;
10201;SDS011;5143;42.584;23.164;2024-03-08T06:43:06;5.27;;;4.20;;
10201;SDS011;5143;42.584;23.164;2024-03-08T06:45:33;5.20;;;4.20;;
10201;SDS011;5143;42.584;23.164;2024-03-08T06:48:02;4.27;;;3.40;;
10201;SDS011;5143;42.584;23.164;2024-03-08T06:50:28;4.10;;;3.70;;
10201;SDS011;5143;42.584;23.164;2024-03-08T06:52:57;6.47;;;3.93;;
10201;SDS011;5143;42.584;23.164;2024-03-08T06:55:25;4.90;;;3.97;;
10201;SDS011;5143;42.584;23.164;2024-03-08T06:57:52;4.50;;;3.93;;
10201;SDS011;5143;42.584;23.164;2024-03-08T07:00:18;4.20;;;3.70;;
10201;SDS011;5143;42.584;23.164;2024-03-08T07:02:45;3.83;;;3.50;;
10201;SDS011;5143;42.584;23.164;2024-03-08T07:05:13;4.00;;;3.60;;
10201;SDS011;5143;42.584;23.164;2024-03-08T07:07:41;5.37;;;3.87;;
10201;SDS011;5143;42.584;23.164;2024-03-08T07:10:08;4.60;;;3.60;;
10201;SDS011;5143;42.584;23.164;2024-03-08T07:12:37;4.60;;;3.90;;
10201;SDS011;5143;42.584;23.164;2024-03-08T07:15:04;5.97;;;3.90;;
10201;SDS011;5143;42.584;23.164;2024-03-08T07:17:31;3.83;;;3.20;;
10201;SDS011;5143;42.584;23.164;2024-03-08T07:19:59;5.20;;;3.40;;
10201;SDS011;5143;42.584;23.164;2024-03-08T07:22:32;5.27;;;3.97;;
10201;SDS011;5143;42.584;23.164;2024-03-08T07:24:58;4.33;;;3.87;;
10201;SDS011;5143;42.584;23.164;2024-03-08T07:27:46;4.63;;;3.87;;
10201;SDS011;5143;42.584;23.164;2024-03-08T07:30:12;4.67;;;4.17;;
10201;SDS011;5143;42.584;23.164;2024-03-08T07:32:59;4.77;;;3.97;;
10201;SDS011;5143;42.584;23.164;2024-03-08T07:35:25;6.07;;;4.13;;
10201;SDS011;5143;42.584;23.164;2024-03-08T07:37:52;4.53;;;3.60;;
10201;SDS011;5143;42.584;23.164;2024-03-08T07:40:20;5.17;;;3.50;;
10201;SDS011;5143;42.584;23.164;2024-03-08T07:42:47;4.50;;;3.43;;
10201;SDS011;5143;42.584;23.164;2024-03-08T07:45:14;3.70;;;3.13;;
10201;SDS011;5143;42.584;23.164;2024-03-08T07:47:41;4.00;;;3.57;;
10201;SDS011;5143;42.584;23.164;2024-03-08T07:50:07;5.47;;;3.53;;
10201;SDS011;5143;42.584;23.164;2024-03-08T07:52:34;4.93;;;3.90;;
10201;SDS011;5143;42.584;23.164;2024-03-08T07:55:01;3.83;;;3.37;;
10201;SDS011;5143;42.584;23.164;2024-03-08T07:57:28;5.03;;;3.73;;
10201;SDS011;5143;42.584;23.164;2024-03-08T07:59:56;5.10;;;4.17;;
10201;SDS011;5143;42.584;23.164;2024-03-08T08:02:23;5.10;;;4.10;;
10201;SDS011;5143;42.584;23.164;2024-03-08T08:04:49;5.57;;;4.33;;
10201;SDS011;5143;42.584;23.164;2024-03-08T08:07:16;6.13;;;4.40;;
10201;SDS011;5143;42.584;23.164;2024-03-08T08:09:42;7.37;;;4.57;;
10201;SDS011;5143;42.584;23.164;2024-03-08T08:12:08;5.57;;;4.50;;
10201;SDS011;5143;42.584;23.164;2024-03-08T08:14:37;7.13;;;5.03;;
10201;SDS011;5143;42.584;23.164;2024-03-08T08:17:05;5.90;;;4.67;;
10201;SDS011;5143;42.584;23.164;2024-03-08T08:19:33;5.23;;;4.60;;
10201;SDS011;5143;42.584;23.164;2024-03-08T08:22:00;5.63;;;3.97;;
10201;SDS011;5143;42.584;23.164;2024-03-08T08:24:27;4.67;;;3.93;;
10201;SDS011;5143;42.584;23.164;2024-03-08T08:26:53;6.13;;;4.60;;
10201;SDS011;5143;42.584;23.164;2024-03-08T08:29:20;6.67;;;4.43;;
10201;SDS011;5143;42.584;23.164;2024-03-08T08:31:48;6.03;;;4.17;;
10201;SDS011;5143;42.584;23.164;2024-03-08T08:34:16;8.40;;;4.60;;
10201;SDS011;5143;42.584;23.164;2024-03-08T08:36:44;5.00;;;4.23;;
10201;SDS011;5143;42.584;23.164;2024-03-08T08:39:10;4.27;;;3.87;;
10201;SDS011;5143;42.584;23.164;2024-03-08T08:41:38;8.20;;;4.17;;
10201;SDS011;5143;42.584;23.164;2024-03-08T08:44:06;4.83;;;4.07;;
10201;SDS011;5143;42.584;23.164;2024-03-08T08:46:35;4.47;;;3.80;;
10201;SDS011;5143;42.584;23.164;2024-03-08T08:49:01;5.43;;;3.70;;
10201;SDS011;5143;42.584;23.164;2024-03-08T08:51:29;4.30;;;3.60;;
10201;SDS011;5143;42.584;23.164;2024-03-08T08:53:58;3.90;;;3.50;;
10201;SDS011;5143;42.584;23.164;2024-03-08T08:56:25;5.07;;;3.73;;
10201;SDS011;5143;42.584;23.164;2024-03-08T08:58:51;4.27;;;3.60;;
10201;SDS011;5143;42.584;23.164;2024-03-08T09:01:19;4.40;;;3.40;;
10201;SDS011;5143;42.584;23.164;2024-03-08T09:03:45;5.17;;;3.60;;
10201;SDS011;5143;42.584;23.164;2024-03-08T09:06:12;6.13;;;3.40;;
10201;SDS011;5143;42.584;23.164;2024-03-08T09:08:40;7.43;;;3.77;;
10201;SDS011;5143;42.584;23.164;2024-03-08T09:11:07;3.73;;;3.03;;
10201;SDS011;5143;42.584;23.164;2024-03-08T09:13:34;8.47;;;3.40;;
10201;SDS011;5143;42.584;23.164;2024-03-08T09:16:01;4.83;;;3.30;;
10201;SDS011;5143;42.584;23.164;2024-03-08T09:18:28;3.73;;;3.23;;
10201;SDS011;5143;42.584;23.164;2024-03-08T09:20:54;8.13;;;3.73;;
10201;SDS011;5143;42.584;23.164;2024-03-08T09:23:21;4.63;;;3.63;;
10201;SDS011;5143;42.584;23.164;2024-03-08T09:25:48;4.77;;;3.77;;
10201;SDS011;5143;42.584;23.164;2024-03-08T09:28:15;5.90;;;3.43;;
10201;SDS011;5143;42.584;23.164;2024-03-08T09:30:41;5.67;;;2.90;;
10201;SDS011;5143;42.584;23.164;2024-03-08T09:33:09;3.50;;;2.93;;
10201;SDS011;5143;42.584;23.164;2024-03-08T09:35:36;4.07;;;3.17;;
10201;SDS011;5143;42.584;23.164;2024-03-08T09:38:03;4.97;;;3.33;;
10201;SDS011;5143;42.584;23.164;2024-03-08T09:40:30;4.47;;;2.83;;
10201;SDS011;5143;42.584;23.164;2024-03-08T09:42:58;2.93;;;2.43;;
10201;SDS011;5143;42.584;23.164;2024-03-08T09:45:25;7.47;;;3.07;;
10201;SDS011;5143;42.584;23.164;2024-03-08T09:47:54;4.03;;;2.47;;
10201;SDS011;5143;42.584;23.164;2024-03-08T09:50:21;3.60;;;2.73;;
10201;SDS011;5143;42.584;23.164;2024-03-08T09:52:47;3.87;;;2.80;;
10201;SDS011;5143;42.584;23.164;2024-03-08T09:55:14;4.93;;;3.20;;
10201;SDS011;5143;42.584;23.164;2024-03-08T09:57:42;3.70;;;2.83;;
10201;SDS011;5143;42.584;23.164;2024-03-08T10:00:31;7.70;;;3.10;;
10201;SDS011;5143;42.584;23.164;2024-03-08T10:03:00;7.40;;;3.10;;
10201;SDS011;5143;42.584;23.164;2024-03-08T10:05:26;3.73;;;2.97;;
10201;SDS011;5143;42.584;23.164;2024-03-08T10:07:53;4.37;;;3.00;;
10201;SDS011;5143;42.584;23.164;2024-03-08T10:10:19;3.33;;;2.50;;
10201;SDS011;5143;42.584;23.164;2024-03-08T10:12:46;4.30;;;3.20;;
10201;SDS011;5143;42.584;23.164;2024-03-08T10:15:15;9.07;;;3.70;;
10201;SDS011;5143;42.584;23.164;2024-03-08T10:17:43;4.33;;;2.60;;
10201;SDS011;5143;42.584;23.164;2024-03-08T10:20:13;4.23;;;2.60;;
10201;SDS011;5143;42.584;23.164;2024-03-08T10:22:40;5.53;;;2.67;;
10201;SDS011;5143;42.584;23.164;2024-03-08T10:25:07;3.83;;;2.47;;
10201;SDS011;5143;42.584;23.164;2024-03-08T10:27:35;3.53;;;2.60;;
10201;SDS011;5143;42.584;23.164;2024-03-08T10:30:02;4.27;;;2.87;;
10201;SDS011;5143;42.584;23.164;2024-03-08T10:32:29;6.33;;;2.83;;
10201;SDS011;5143;42.584;23.164;2024-03-08T10:34:57;3.33;;;2.53;;
10201;SDS011;5143;42.584;23.164;2024-03-08T10:37:24;3.20;;;2.43;;
10201;SDS011;5143;42.584;23.164;2024-03-08T10:39:56;2.87;;;2.27;;
10201;SDS011;5143;42.584;23.164;2024-03-08T10:42:27;3.83;;;2.43;;
10201;SDS011;5143;42.584;23.164;2024-03-08T10:44:57;6.50;;;2.30;;
10201;SDS011;5143;42.584;23.164;2024-03-08T10:47:29;4.07;;;2.43;;
10201;SDS011;5143;42.584;23.164;2024-03-08T10:50:02;5.20;;;2.10;;
10201;SDS011;5143;42.584;23.164;2024-03-08T10:52:33;2.57;;;2.13;;
10201;SDS011;5143;42.584;23.164;2024-03-08T10:55:02;3.07;;;1.87;;
10201;SDS011;5143;42.584;23.164;2024-03-08T10:57:28;6.30;;;2.00;;
10201;SDS011;5143;42.584;23.164;2024-03-08T10:59:56;3.07;;;1.90;;
10201;SDS011;5143;42.584;23.164;2024-03-08T11:02:23;3.70;;;1.90;;
10201;SDS011;5143;42.584;23.164;2024-03-08T11:04:52;2.17;;;1.83;;
10201;SDS011;5143;42.584;23.164;2024-03-08T11:07:23;2.03;;;1.60;;
10201;SDS011;5143;42.584;23.164;2024-03-08T11:09:52;5.10;;;1.83;;
10201;SDS011;5143;42.584;23.164;2024-03-08T11:12:19;4.43;;;2.00;;
10201;SDS011;5143;42.584;23.164;2024-03-08T11:14:45;2.90;;;1.90;;
10201;SDS011;5143;42.584;23.164;2024-03-08T11:17:15;1.90;;;1.50;;
10201;SDS011;5143;42.584;23.164;2024-03-08T11:19:45;1.80;;;1.40;;
10201;SDS011;5143;42.584;23.164;2024-03-08T11:22:20;2.83;;;1.60;;
10201;SDS011;5143;42.584;23.164;2024-03-08T11:24:48;2.37;;;1.53;;
10201;SDS011;5143;42.584;23.164;2024-03-08T11:27:14;1.27;;;1.03;;
10201;SDS011;5143;42.584;23.164;2024-03-08T11:29:41;2.57;;;1.50;;
10201;SDS011;5143;42.584;23.164;2024-03-08T11:32:08;3.47;;;1.70;;
10201;SDS011;5143;42.584;23.164;2024-03-08T11:34:35;2.20;;;1.57;;
10201;SDS011;5143;42.584;23.164;2024-03-08T11:37:03;2.43;;;1.60;;
10201;SDS011;5143;42.584;23.164;2024-03-08T11:39:29;1.87;;;1.33;;
10201;SDS011;5143;42.584;23.164;2024-03-08T11:41:57;5.73;;;1.70;;
10201;SDS011;5143;42.584;23.164;2024-03-08T11:44:26;2.43;;;1.50;;
10201;SDS011;5143;42.584;23.164;2024-03-08T11:46:53;2.00;;;1.60;;
10201;SDS011;5143;42.584;23.164;2024-03-08T11:49:19;2.03;;;1.40;;
10201;SDS011;5143;42.584;23.164;2024-03-08T11:51:45;2.33;;;1.43;;
10201;SDS011;5143;42.584;23.164;2024-03-08T11:54:12;1.80;;;1.60;;
10201;SDS011;5143;42.584;23.164;2024-03-08T11:56:40;6.00;;;1.87;;
10201;SDS011;5143;42.584;23.164;2024-03-08T11:59:10;2.23;;;1.67;;
10201;SDS011;5143;42.584;23.164;2024-03-08T12:01:37;1.73;;;1.40;;
10201;SDS011;5143;42.584;23.164;2024-03-08T12:04:04;2.30;;;1.70;;
10201;SDS011;5143;42.584;23.164;2024-03-08T12:06:36;1.60;;;1.20;;
10201;SDS011;5143;42.584;23.164;2024-03-08T12:09:08;2.70;;;1.40;;
10201;SDS011;5143;42.584;23.164;2024-03-08T12:11:39;3.03;;;1.80;;
10201;SDS011;5143;42.584;23.164;2024-03-08T12:14:09;5.13;;;1.63;;
10201;SDS011;5143;42.584;23.164;2024-03-08T12:16:36;3.93;;;1.70;;
10201;SDS011;5143;42.584;23.164;2024-03-08T12:19:02;1.30;;;1.10;;
10201;SDS011;5143;42.584;23.164;2024-03-08T12:21:30;1.97;;;1.13;;
10201;SDS011;5143;42.584;23.164;2024-03-08T12:24:04;1.23;;;1.00;;
10201;SDS011;5143;42.584;23.164;2024-03-08T12:26:34;4.20;;;1.40;;
10201;SDS011;5143;42.584;23.164;2024-03-08T12:29:19;2.33;;;1.40;;
10201;SDS011;5143;42.584;23.164;2024-03-08T12:31:47;2.90;;;1.53;;
10201;SDS011;5143;42.584;23.164;2024-03-08T12:34:15;2.30;;;1.30;;
10201;SDS011;5143;42.584;23.164;2024-03-08T12:36:44;4.40;;;1.40;;
10201;SDS011;5143;42.584;23.164;2024-03-08T12:39:12;1.93;;;1.40;;
10201;SDS011;5143;42.584;23.164;2024-03-08T12:41:41;2.07;;;1.20;;
10201;SDS011;5143;42.584;23.164;2024-03-08T12:44:08;2.47;;;1.37;;
10201;SDS011;5143;42.584;23.164;2024-03-08T12:46:37;2.23;;;1.53;;
10201;SDS011;5143;42.584;23.164;2024-03-08T12:49:06;2.87;;;1.50;;
10201;SDS011;5143;42.584;23.164;2024-03-08T12:51:33;2.60;;;1.43;;
10201;SDS011;5143;42.584;23.164;2024-03-08T12:53:59;2.97;;;1.53;;
10201;SDS011;5143;42.584;23.164;2024-03-08T12:56:28;3.97;;;1.40;;
10201;SDS011;5143;42.584;23.164;2024-03-08T12:58:55;4.27;;;1.47;;
10201;SDS011;5143;42.584;23.164;2024-03-08T13:01:22;2.73;;;1.40;;
10201;SDS011;5143;42.584;23.164;2024-03-08T13:03:50;2.03;;;1.30;;
10201;SDS011;5143;42.584;23.164;2024-03-08T13:06:16;1.77;;;1.30;;
10201;SDS011;5143;42.584;23.164;2024-03-08T13:08:44;1.90;;;1.30;;
10201;SDS011;5143;42.584;23.164;2024-03-08T13:11:11;1.97;;;1.47;;
10201;SDS011;5143;42.584;23.164;2024-03-08T13:13:39;1.70;;;1.20;;
10201;SDS011;5143;42.584;23.164;2024-03-08T13:16:05;2.80;;;1.27;;
10201;SDS011;5143;42.584;23.164;2024-03-08T13:18:33;2.07;;;1.43;;
10201;SDS011;5143;42.584;23.164;2024-03-08T13:21:01;4.83;;;1.40;;
10201;SDS011;5143;42.584;23.164;2024-03-08T13:23:31;5.13;;;1.50;;
10201;SDS011;5143;42.584;23.164;2024-03-08T13:25:57;4.57;;;1.60;;
10201;SDS011;5143;42.584;23.164;2024-03-08T13:28:24;4.07;;;1.43;;
10201;SDS011;5143;42.584;23.164;2024-03-08T13:30:54;4.63;;;1.40;;
10201;SDS011;5143;42.584;23.164;2024-03-08T13:33:23;9.67;;;1.37;;
10201;SDS011;5143;42.584;23.164;2024-03-08T13:35:49;2.70;;;1.43;;
10201;SDS011;5143;42.584;23.164;2024-03-08T13:38:17;1.67;;;1.10;;
10201;SDS011;5143;42.584;23.164;2024-03-08T13:40:45;4.03;;;1.40;;
10201;SDS011;5143;42.584;23.164;2024-03-08T13:43:12;4.03;;;1.43;;
10201;SDS011;5143;42.584;23.164;2024-03-08T13:45:38;9.67;;;1.90;;
10201;SDS011;5143;42.584;23.164;2024-03-08T13:48:06;9.00;;;1.80;;
10201;SDS011;5143;42.584;23.164;2024-03-08T13:50:37;3.83;;;1.70;;
10201;SDS011;5143;42.584;23.164;2024-03-08T13:53:04;3.57;;;1.50;;
10201;SDS011;5143;42.584;23.164;2024-03-08T13:55:32;2.17;;;1.50;;
10201;SDS011;5143;42.584;23.164;2024-03-08T13:57:59;5.07;;;1.60;;
10201;SDS011;5143;42.584;23.164;2024-03-08T14:00:25;2.17;;;1.53;;
10201;SDS011;5143;42.584;23.164;2024-03-08T14:02:58;1.80;;;1.40;;
10201;SDS011;5143;42.584;23.164;2024-03-08T14:05:24;4.67;;;1.57;;
10201;SDS011;5143;42.584;23.164;2024-03-08T14:07:52;2.10;;;1.47;;
10201;SDS011;5143;42.584;23.164;2024-03-08T14:10:19;3.90;;;1.53;;
10201;SDS011;5143;42.584;23.164;2024-03-08T14:12:49;7.00;;;1.50;;
10201;SDS011;5143;42.584;23.164;2024-03-08T14:15:15;2.00;;;1.60;;
10201;SDS011;5143;42.584;23.164;2024-03-08T14:17:42;6.37;;;1.90;;
10201;SDS011;5143;42.584;23.164;2024-03-08T14:20:09;3.70;;;2.10;;
10201;SDS011;5143;42.584;23.164;2024-03-08T14:22:38;3.13;;;1.63;;
10201;SDS011;5143;42.584;23.164;2024-03-08T14:25:05;3.13;;;1.63;;
10201;SDS011;5143;42.584;23.164;2024-03-08T14:27:31;4.00;;;1.80;;
10201;SDS011;5143;42.584;23.164;2024-03-08T14:29:59;2.20;;;1.53;;
10201;SDS011;5143;42.584;23.164;2024-03-08T14:32:26;3.60;;;1.60;;
10201;SDS011;5143;42.584;23.164;2024-03-08T14:34:53;7.87;;;1.70;;
10201;SDS011;5143;42.584;23.164;2024-03-08T14:37:20;7.67;;;1.70;;
10201;SDS011;5143;42.584;23.164;2024-03-08T14:39:53;1.87;;;1.50;;
10201;SDS011;5143;42.584;23.164;2024-03-08T14:42:20;1.97;;;1.70;;
10201;SDS011;5143;42.584;23.164;2024-03-08T14:44:47;5.83;;;1.83;;
10201;SDS011;5143;42.584;23.164;2024-03-08T14:47:17;4.60;;;1.80;;